Flight Track Log - Related Links

Times and Time Zones

All times are in EDT time to prevent confusion due to time zone crossing. See the CSN6337 flight status page for this flight to view local times or setup timezone preferences in your user account.

Time Position Orientation Groundspeed Altitude Reporting Facility
EDT Latitude Longitude Course Direction KTS MPH feet Rate Location/Type
Mon 08:06:00 PM 38.8657 121.4979 198° South  Level Estimated
Mon 08:07:00 PM 38.7698 121.4589 198° South  Level Estimated
Mon 08:08:00 PM 38.6739 121.4200 198° South  Level Estimated
Mon 08:09:00 PM 38.5779 121.3813 198° South  Level Estimated
Mon 08:10:00 PM 38.4819 121.3426 198° South  Level Estimated
Mon 08:11:00 PM 38.3860 121.3040 197° South  Level Estimated
Mon 08:12:00 PM 38.2900 121.2656 197° South  Level Estimated
Mon 08:13:00 PM 38.1940 121.2272 197° South  Level Estimated
Mon 08:14:00 PM 38.0979 121.1889 197° South  Level Estimated
Mon 08:15:00 PM 38.0019 121.1508 197° South  Level Estimated
Mon 08:16:00 PM 37.9058 121.1127 197° South  Level Estimated
Mon 08:17:00 PM 37.8098 121.0748 197° South  Level Estimated
Mon 08:18:00 PM 37.7137 121.0369 197° South  Level Estimated
Mon 08:19:00 PM 37.6176 120.9992 197° South  Level Estimated
Mon 08:20:00 PM 37.5215 120.9615 197° South  Level Estimated
Mon 08:21:00 PM 37.4254 120.9239 197° South  Level Estimated
Mon 08:22:00 PM 37.3293 120.8865 197° South  Level Estimated
Mon 08:23:00 PM 37.2332 120.8491 197° South  Level Estimated
Mon 08:24:00 PM 37.1370 120.8118 197° South  Level Estimated
Mon 08:25:00 PM 37.0409 120.7746 197° South  Level Estimated
Mon 08:26:00 PM 36.9447 120.7375 197° South  Level Estimated
Mon 08:27:00 PM 36.8485 120.7005 197° South  Level Estimated
Mon 08:28:00 PM 36.7524 120.6636 197° South  Level Estimated
Mon 08:29:00 PM 36.6562 120.6268 197° South  Level Estimated
Mon 08:30:00 PM 36.5600 120.5901 197° South  Level Estimated
Mon 08:31:00 PM 36.4637 120.5534 197° South  Level Estimated
Mon 08:32:00 PM 36.3675 120.5169 197° South  Level Estimated
Mon 08:33:00 PM 36.2713 120.4805 197° South  Level Estimated
Mon 08:34:00 PM 36.1750 120.4441 197° South  Level Estimated
Mon 08:35:00 PM 36.0787 120.4078 197° South  Level Estimated
Mon 08:36:00 PM 35.9824 120.3716 197° South  Level Estimated
Mon 08:37:00 PM 35.8862 120.3355 197° South  Level Estimated
Mon 08:38:00 PM 35.7899 120.2995 197° South  Level Estimated
Mon 08:39:00 PM 35.6936 120.2636 197° South  Level Estimated
Mon 08:40:00 PM 35.5972 120.2278 197° South  Level Estimated
Mon 08:41:00 PM 35.5009 120.1920 197° South  Level Estimated
Mon 08:42:00 PM 35.4046 120.1564 197° South  Level Estimated
Mon 08:43:00 PM 35.3082 120.1208 197° South  Level Estimated
Mon 08:44:00 PM 35.2118 120.0853 197° South  Level Estimated
Mon 08:45:00 PM 35.1155 120.0499 197° South  Level Estimated
Mon 08:46:00 PM 35.0191 120.0146 197° South  Level Estimated
Mon 08:47:00 PM 34.9227 119.9793 197° South  Level Estimated
Mon 08:48:00 PM 34.8263 119.9442 197° South  Level Estimated
Mon 08:49:00 PM 34.7299 119.9091 197° South  Level Estimated
Mon 08:50:00 PM 34.6335 119.8741 197° South  Level Estimated
Mon 08:51:00 PM 34.5370 119.8392 197° South  Level Estimated
Mon 08:52:00 PM 34.4406 119.8044 197° South  Level Estimated
Mon 08:53:00 PM 34.3441 119.7696 197° South  Level Estimated
Mon 08:54:00 PM 34.2477 119.7350 197° South  Level Estimated
Mon 08:55:00 PM 34.1512 119.7004 197° South  Level Estimated
Mon 08:56:00 PM 34.0547 119.6659 197° South  Level Estimated
Mon 08:57:00 PM 33.9582 119.6314 196° South  Level Estimated
Mon 08:58:00 PM 33.8617 119.5971 196° South  Level Estimated
Mon 08:59:00 PM 33.7652 119.5628 196° South  Level Estimated
Mon 09:00:00 PM 33.6687 119.5286 196° South  Level Estimated
Mon 09:01:00 PM 33.5722 119.4945 196° South  Level Estimated
Mon 09:02:00 PM 33.4756 119.4604 196° South  Level Estimated
Mon 09:03:00 PM 33.3791 119.4265 196° South  Level Estimated
Mon 09:04:00 PM 33.2825 119.3926 196° South  Level Estimated
Mon 09:05:00 PM 33.1859 119.3587 196° South  Level Estimated
Mon 09:06:00 PM 33.0894 119.3250 196° South  Level Estimated
Mon 09:07:00 PM 32.9928 119.2913 196° South  Level Estimated
Mon 09:08:00 PM 32.8962 119.2577 196° South  Level Estimated
Mon 09:09:00 PM 32.7996 119.2242 196° South  Level Estimated
Mon 09:10:00 PM 32.7030 119.1907 196° South  Level Estimated
Mon 09:11:00 PM 32.6063 119.1573 196° South  Level Estimated
Mon 09:12:00 PM 32.5097 119.1240 196° South  Level Estimated
Mon 09:13:00 PM 32.4131 119.0908 196° South  Level Estimated
Mon 09:14:00 PM 32.3164 119.0576 196° South  Level Estimated
Mon 09:15:00 PM 32.2198 119.0245 196° South  Level Estimated
Mon 09:16:00 PM 32.1231 118.9915 196° South  Level Estimated
Mon 09:17:00 PM 32.0264 118.9586 196° South  Level Estimated
Mon 09:18:00 PM 31.9298 118.9257 196° South  Level Estimated
Mon 09:19:00 PM 31.8331 118.8929 196° South  Level Estimated
Mon 09:20:00 PM 31.7421 118.8620 196° South  Level Estimated
Mon 09:21:00 PM 31.7421 118.8620 North  Level Estimated
Mon 09:22:00 PM 31.7421 118.8620 North  Level Estimated
Mon 09:23:00 PM 31.7421 118.8620 North  Level Estimated
Mon 09:24:00 PM 31.7421 118.8620 North  Level Estimated
Mon 09:25:00 PM 31.7421 118.8620 North  Level Estimated
Mon 09:26:00 PM 31.7421 118.8620 North  Level Estimated
Mon 09:27:00 PM 31.7421 118.8620 North  Level Estimated
Mon 09:28:00 PM 31.7421 118.8620 North  Level Estimated
Mon 09:29:00 PM 31.7421 118.8620 North  Level Estimated

Login

Don't have an account? Register now (free) for customized features, flight alerts, and more!